createdAt,value
2023-08-14T00:00:33.531Z,20.58
2023-08-14T00:01:33.574Z,20.58
2023-08-14T00:02:33.521Z,20.57
2023-08-14T00:03:33.568Z,20.57
2023-08-14T00:04:33.513Z,20.56
2023-08-14T00:05:33.505Z,20.57
2023-08-14T00:06:33.496Z,20.60
2023-08-14T00:07:33.440Z,20.58
2023-08-14T00:08:33.502Z,20.57
2023-08-14T00:09:33.433Z,20.57
2023-08-14T00:10:33.437Z,20.57
2023-08-14T00:11:33.408Z,20.58
2023-08-14T00:12:33.417Z,20.58
2023-08-14T00:13:33.387Z,20.61
2023-08-14T00:14:33.394Z,20.60
2023-08-14T00:15:33.424Z,20.60
2023-08-14T00:16:33.408Z,20.58
2023-08-14T00:17:33.382Z,20.61
2023-08-14T00:18:33.390Z,20.60
2023-08-14T00:19:33.351Z,20.56
2023-08-14T00:20:33.336Z,20.56
2023-08-14T00:21:33.317Z,20.56
2023-08-14T00:22:33.321Z,20.57
2023-08-14T00:23:33.289Z,20.54
2023-08-14T00:24:33.281Z,20.54
2023-08-14T00:25:33.282Z,20.54
2023-08-14T00:26:33.295Z,20.53
2023-08-14T00:27:33.244Z,20.56
2023-08-14T00:28:33.266Z,20.54
2023-08-14T00:29:33.214Z,20.57
2023-08-14T00:30:33.224Z,20.54
2023-08-14T00:31:33.320Z,20.51
2023-08-14T00:32:33.228Z,20.53
2023-08-14T00:33:33.206Z,20.51
2023-08-14T00:34:33.223Z,20.51
2023-08-14T00:35:33.205Z,20.50
2023-08-14T00:36:33.162Z,20.51
2023-08-14T00:37:33.136Z,20.51
2023-08-14T00:38:33.143Z,20.50
2023-08-14T00:39:33.145Z,20.50
2023-08-14T00:40:33.128Z,20.48
2023-08-14T00:41:33.148Z,20.44
2023-08-14T00:42:33.096Z,20.46
2023-08-14T00:43:33.078Z,20.48
2023-08-14T00:44:33.084Z,20.44
2023-08-14T00:45:41.025Z,20.42
2023-08-14T00:46:33.095Z,20.44
2023-08-14T00:47:33.106Z,20.46
2023-08-14T00:48:33.058Z,20.50
2023-08-14T00:49:33.020Z,20.44
2023-08-14T00:50:33.006Z,20.46
2023-08-14T00:51:33.044Z,20.46
2023-08-14T00:52:33.000Z,20.48
2023-08-14T00:53:32.998Z,20.42
2023-08-14T00:54:33.619Z,20.42
2023-08-14T00:55:32.952Z,20.42
2023-08-14T00:56:32.938Z,20.42
2023-08-14T00:57:32.948Z,20.42
2023-08-14T00:58:32.940Z,20.44
2023-08-14T00:59:32.944Z,20.46
2023-08-14T01:00:32.939Z,20.42
2023-08-14T01:01:32.897Z,20.41
2023-08-14T01:02:33.049Z,20.42
2023-08-14T01:03:33.057Z,20.41
2023-08-14T01:04:32.847Z,20.46
2023-08-14T01:05:32.836Z,20.42
2023-08-14T01:06:32.846Z,20.40
2023-08-14T01:07:32.831Z,20.41
2023-08-14T01:08:32.862Z,20.44
2023-08-14T01:09:32.807Z,20.42
2023-08-14T01:10:32.795Z,20.38
2023-08-14T01:11:32.773Z,20.38
2023-08-14T01:12:32.784Z,20.38
2023-08-14T01:13:32.770Z,20.38
2023-08-14T01:14:32.733Z,20.38
2023-08-14T01:15:32.763Z,20.40
2023-08-14T01:16:32.809Z,20.38
2023-08-14T01:17:33.036Z,20.33
2023-08-14T01:18:32.712Z,20.31
2023-08-14T01:19:32.749Z,20.34
2023-08-14T01:20:32.704Z,20.27
2023-08-14T01:21:32.709Z,20.27
2023-08-14T01:22:33.105Z,20.25
2023-08-14T01:23:32.667Z,20.25
2023-08-14T01:24:32.639Z,20.25
2023-08-14T01:25:32.653Z,20.22
2023-08-14T01:26:32.623Z,20.23
2023-08-14T01:27:32.665Z,20.25
2023-08-14T01:28:32.625Z,20.23
2023-08-14T01:29:32.577Z,20.20
2023-08-14T01:30:32.597Z,20.22
2023-08-14T01:31:34.420Z,20.23
2023-08-14T01:32:32.683Z,20.23
2023-08-14T01:33:32.576Z,20.22
2023-08-14T01:34:32.536Z,20.23
2023-08-14T01:35:32.532Z,20.20
2023-08-14T01:36:32.778Z,20.25
2023-08-14T01:37:32.577Z,20.26
2023-08-14T01:38:32.488Z,20.25
2023-08-14T01:39:32.514Z,20.27
2023-08-14T01:40:32.594Z,20.26
2023-08-14T01:41:32.503Z,20.27
2023-08-14T01:42:32.454Z,20.27
2023-08-14T01:43:32.462Z,20.31
2023-08-14T01:44:32.466Z,20.31
2023-08-14T01:45:32.411Z,20.34
2023-08-14T01:46:32.502Z,20.33
2023-08-14T01:47:32.436Z,20.34
2023-08-14T01:48:32.380Z,20.34
2023-08-14T01:49:32.376Z,20.38
2023-08-14T01:50:32.367Z,20.38
2023-08-14T01:51:32.419Z,20.35
2023-08-14T01:52:32.338Z,20.38
2023-08-14T01:53:32.336Z,20.40
2023-08-14T01:54:32.322Z,20.38
2023-08-14T01:55:32.338Z,20.37
2023-08-14T01:56:32.319Z,20.40
2023-08-14T01:57:32.329Z,20.35
2023-08-14T01:58:32.288Z,20.37
2023-08-14T01:59:32.286Z,20.35
2023-08-14T02:00:32.252Z,20.35
2023-08-14T02:01:32.367Z,20.31
2023-08-14T02:02:33.329Z,20.33
2023-08-14T02:03:32.673Z,20.33
2023-08-14T02:04:32.248Z,20.30
2023-08-14T02:05:32.213Z,20.33
2023-08-14T02:06:32.186Z,20.30
2023-08-14T02:07:32.187Z,20.31
2023-08-14T02:08:32.176Z,20.34
2023-08-14T02:09:32.205Z,20.35
2023-08-14T02:10:32.201Z,20.34
2023-08-14T02:11:32.170Z,20.35
2023-08-14T02:12:32.129Z,20.35
2023-08-14T02:13:32.189Z,20.34
2023-08-14T02:14:32.100Z,20.35
2023-08-14T02:15:32.097Z,20.34
2023-08-14T02:16:32.073Z,20.34
2023-08-14T02:17:32.195Z,20.35
2023-08-14T02:18:32.062Z,20.37
2023-08-14T02:19:32.071Z,20.35
2023-08-14T02:20:32.069Z,20.34
2023-08-14T02:21:32.041Z,20.35
2023-08-14T02:22:32.018Z,20.38
2023-08-14T02:23:32.016Z,20.37
2023-08-14T02:24:32.001Z,20.40
2023-08-14T02:25:32.054Z,20.44
2023-08-14T02:26:31.987Z,20.42
2023-08-14T02:27:31.979Z,20.46
2023-08-14T02:28:31.981Z,20.48
2023-08-14T02:29:31.988Z,20.46
2023-08-14T02:30:31.928Z,20.42
2023-08-14T02:31:31.998Z,20.48
2023-08-14T02:32:32.189Z,20.53
2023-08-14T02:33:31.898Z,20.50
2023-08-14T02:34:31.913Z,20.53
2023-08-14T02:35:31.888Z,20.48
2023-08-14T02:36:31.923Z,20.50
2023-08-14T02:37:31.881Z,20.50
2023-08-14T02:38:31.976Z,20.50
2023-08-14T02:39:31.871Z,20.50
2023-08-14T02:40:31.847Z,20.46
2023-08-14T02:41:31.829Z,20.44
2023-08-14T02:42:31.808Z,20.48
2023-08-14T02:43:31.798Z,20.44
2023-08-14T02:44:31.818Z,20.44
2023-08-14T02:45:31.799Z,20.44
2023-08-14T02:46:31.765Z,20.46
2023-08-14T02:47:31.794Z,20.50
2023-08-14T02:48:31.753Z,20.50
2023-08-14T02:49:31.723Z,20.53
2023-08-14T02:50:31.745Z,20.51
2023-08-14T02:51:31.732Z,20.53
2023-08-14T02:52:31.717Z,20.53
2023-08-14T02:53:31.685Z,20.53
2023-08-14T02:54:31.666Z,20.50
2023-08-14T02:55:31.670Z,20.46
2023-08-14T02:56:31.687Z,20.40
2023-08-14T02:57:31.667Z,20.40
2023-08-14T02:58:31.643Z,20.40
2023-08-14T02:59:31.615Z,20.40
2023-08-14T03:00:31.617Z,20.38
2023-08-14T03:01:31.649Z,20.42
2023-08-14T03:02:31.723Z,20.41
2023-08-14T03:03:31.614Z,20.40
2023-08-14T03:04:31.559Z,20.35
2023-08-14T03:05:31.553Z,20.42
2023-08-14T03:06:31.549Z,20.37
2023-08-14T03:07:31.561Z,20.40
2023-08-14T03:08:31.555Z,20.40
2023-08-14T03:09:31.518Z,20.40
2023-08-14T03:10:31.498Z,20.40
2023-08-14T03:11:31.488Z,20.40
2023-08-14T03:12:31.493Z,20.41
2023-08-14T03:13:31.496Z,20.38
2023-08-14T03:14:31.478Z,20.42
2023-08-14T03:15:31.454Z,20.44
2023-08-14T03:16:31.490Z,20.41
2023-08-14T03:17:31.436Z,20.41
2023-08-14T03:18:31.430Z,20.38
2023-08-14T03:19:31.437Z,20.40
2023-08-14T03:20:31.397Z,20.40
2023-08-14T03:21:31.383Z,20.37
2023-08-14T03:22:31.381Z,20.34
2023-08-14T03:23:31.369Z,20.34
2023-08-14T03:24:31.388Z,20.31
2023-08-14T03:25:31.357Z,20.30
2023-08-14T03:26:31.367Z,20.27
2023-08-14T03:27:31.310Z,20.30
2023-08-14T03:28:31.319Z,20.30
2023-08-14T03:29:31.339Z,20.30
2023-08-14T03:30:31.286Z,20.30
2023-08-14T03:31:31.304Z,20.27
2023-08-14T03:32:31.304Z,20.27
2023-08-14T03:33:31.258Z,20.26
2023-08-14T03:34:31.270Z,20.25
2023-08-14T03:35:31.240Z,20.26
2023-08-14T03:36:31.231Z,20.25
2023-08-14T03:37:31.224Z,20.23
2023-08-14T03:38:31.211Z,20.26
2023-08-14T03:39:31.223Z,20.26
2023-08-14T03:40:31.186Z,20.27
2023-08-14T03:41:31.173Z,20.27
2023-08-14T03:42:31.149Z,20.27
2023-08-14T03:43:31.192Z,20.26
2023-08-14T03:44:32.179Z,20.23
2023-08-14T03:45:31.140Z,20.26
2023-08-14T03:46:31.135Z,20.23
2023-08-14T03:47:31.135Z,20.23
2023-08-14T03:48:31.117Z,20.22
2023-08-14T03:49:31.132Z,20.20
2023-08-14T03:50:31.335Z,20.20
2023-08-14T03:51:31.060Z,20.22
2023-08-14T03:52:31.068Z,20.16
2023-08-14T03:53:31.070Z,20.17
2023-08-14T03:54:31.046Z,20.17
2023-08-14T03:55:31.040Z,20.12
2023-08-14T03:56:31.000Z,20.10
2023-08-14T03:57:31.022Z,20.07
2023-08-14T03:58:30.981Z,20.05
2023-08-14T03:59:31.031Z,20.07
2023-08-14T04:00:30.981Z,20.02
2023-08-14T04:01:31.011Z,20.01
2023-08-14T04:02:30.970Z,19.97
2023-08-14T04:03:32.383Z,19.92
2023-08-14T04:04:30.913Z,19.89
2023-08-14T04:05:30.934Z,19.89
2023-08-14T04:06:30.968Z,19.85
2023-08-14T04:07:30.904Z,19.85
2023-08-14T04:08:30.891Z,19.89
2023-08-14T04:09:30.872Z,19.87
2023-08-14T04:10:30.906Z,19.83
2023-08-14T04:11:30.860Z,19.86
2023-08-14T04:12:30.832Z,19.86
2023-08-14T04:13:30.846Z,19.86
2023-08-14T04:14:30.800Z,19.85
2023-08-14T04:15:30.845Z,19.86
2023-08-14T04:16:30.833Z,19.86
2023-08-14T04:17:30.800Z,19.87
2023-08-14T04:18:30.763Z,19.85
2023-08-14T04:19:30.774Z,19.83
2023-08-14T04:20:30.843Z,19.83
2023-08-14T04:21:30.734Z,19.83
2023-08-14T04:22:30.726Z,19.83
2023-08-14T04:23:30.719Z,19.80
2023-08-14T04:24:30.700Z,19.82
2023-08-14T04:25:30.705Z,19.82
2023-08-14T04:26:30.700Z,19.83
2023-08-14T04:27:30.679Z,19.82
2023-08-14T04:28:30.652Z,19.83
2023-08-14T04:29:30.712Z,19.82
2023-08-14T04:30:30.635Z,19.85
2023-08-14T04:31:30.634Z,19.87
2023-08-14T04:32:30.666Z,19.86
2023-08-14T04:33:31.002Z,19.86
2023-08-14T04:34:30.716Z,19.86
2023-08-14T04:35:30.599Z,19.90
2023-08-14T04:36:30.591Z,19.89
2023-08-14T04:37:30.662Z,19.89
2023-08-14T04:38:30.587Z,19.90
2023-08-14T04:39:30.537Z,19.89
2023-08-14T04:40:30.526Z,19.87
2023-08-14T04:41:30.559Z,19.89
2023-08-14T04:42:31.089Z,19.90
2023-08-14T04:43:30.509Z,19.92
2023-08-14T04:44:30.488Z,19.90
2023-08-14T04:45:30.493Z,19.89
2023-08-14T04:46:32.164Z,19.89
2023-08-14T04:47:30.568Z,19.90
2023-08-14T04:48:30.460Z,19.95
2023-08-14T04:49:31.549Z,19.92
2023-08-14T04:50:30.421Z,19.94
2023-08-14T04:51:33.080Z,19.92
2023-08-14T04:52:30.438Z,19.94
2023-08-14T04:53:30.500Z,19.94
2023-08-14T04:54:30.385Z,19.94
2023-08-14T04:55:30.394Z,19.94
2023-08-14T04:56:30.372Z,19.97
2023-08-14T04:57:30.346Z,19.92
2023-08-14T04:58:30.348Z,19.98
2023-08-14T04:59:30.390Z,19.98
2023-08-14T05:00:30.364Z,19.98
2023-08-14T05:01:30.534Z,19.94
2023-08-14T05:02:30.351Z,19.98
2023-08-14T05:03:30.284Z,20.00
2023-08-14T05:04:30.530Z,20.00
2023-08-14T05:05:30.265Z,20.02
2023-08-14T05:06:30.257Z,20.02
2023-08-14T05:07:30.267Z,20.02
2023-08-14T05:08:30.234Z,20.05
2023-08-14T05:09:30.214Z,20.02
2023-08-14T05:10:30.256Z,20.05
2023-08-14T05:11:30.205Z,20.04
2023-08-14T05:12:30.196Z,20.05
2023-08-14T05:13:30.190Z,20.07
2023-08-14T05:14:30.167Z,20.08
2023-08-14T05:15:30.178Z,20.10
2023-08-14T05:16:30.204Z,20.12
2023-08-14T05:17:30.193Z,20.12
2023-08-14T05:18:30.167Z,20.13
2023-08-14T05:19:30.140Z,20.10
2023-08-14T05:20:30.096Z,20.07
2023-08-14T05:21:30.103Z,20.05
2023-08-14T05:22:30.736Z,20.01
2023-08-14T05:23:30.065Z,19.98
2023-08-14T05:24:30.072Z,19.94
2023-08-14T05:25:30.067Z,19.95
2023-08-14T05:26:30.260Z,19.94
2023-08-14T05:27:30.034Z,19.90
2023-08-14T05:28:30.091Z,19.98
2023-08-14T05:29:30.287Z,19.98
2023-08-14T05:30:30.002Z,20.00
2023-08-14T05:31:30.037Z,20.02
2023-08-14T05:32:30.085Z,20.01
2023-08-14T05:33:29.976Z,20.02
2023-08-14T05:34:30.389Z,20.05
2023-08-14T05:35:29.955Z,20.12
2023-08-14T05:36:29.930Z,20.13
2023-08-14T05:37:29.917Z,20.15
2023-08-14T05:38:31.106Z,20.19
2023-08-14T05:39:30.135Z,20.23
2023-08-14T05:40:29.895Z,20.22
2023-08-14T05:41:29.896Z,20.27
2023-08-14T05:42:29.921Z,20.33
2023-08-14T05:43:29.856Z,20.37
2023-08-14T05:44:29.884Z,20.37
2023-08-14T05:45:29.844Z,20.35
2023-08-14T05:46:29.822Z,20.38
2023-08-14T05:47:29.836Z,20.35
2023-08-14T05:48:29.868Z,20.31
2023-08-14T05:49:29.796Z,20.34
2023-08-14T05:50:29.787Z,20.34
2023-08-14T05:51:29.778Z,20.33
2023-08-14T05:52:29.770Z,20.37
2023-08-14T05:53:29.830Z,20.38
2023-08-14T05:54:29.775Z,20.37
2023-08-14T05:55:29.733Z,20.40
2023-08-14T05:56:29.752Z,20.42
2023-08-14T05:57:29.697Z,20.48
2023-08-14T05:58:29.721Z,20.50
2023-08-14T05:59:29.692Z,20.53
2023-08-14T06:00:29.697Z,20.56
2023-08-14T06:01:29.687Z,20.63
2023-08-14T06:02:29.740Z,20.64
2023-08-14T06:03:43.329Z,20.63
2023-08-14T06:04:29.768Z,20.66
2023-08-14T06:05:29.793Z,20.61
2023-08-14T06:06:29.837Z,20.63
2023-08-14T06:07:29.817Z,20.61
2023-08-14T06:08:29.577Z,20.61
2023-08-14T06:09:29.606Z,20.61
2023-08-14T06:10:29.580Z,20.60
2023-08-14T06:11:29.579Z,20.64
2023-08-14T06:12:29.547Z,20.68
2023-08-14T06:13:29.533Z,20.73
2023-08-14T06:14:29.519Z,20.79
2023-08-14T06:15:29.649Z,20.82
2023-08-14T06:16:29.623Z,20.87
2023-08-14T06:17:31.764Z,20.88
2023-08-14T06:18:29.495Z,20.90
2023-08-14T06:19:29.487Z,20.90
2023-08-14T06:20:29.448Z,20.90
2023-08-14T06:21:29.439Z,20.87
2023-08-14T06:22:29.462Z,20.82
2023-08-14T06:23:29.412Z,20.85
2023-08-14T06:24:29.426Z,20.88
2023-08-14T06:25:29.402Z,20.85
2023-08-14T06:26:29.432Z,20.87
2023-08-14T06:27:29.399Z,20.87
2023-08-14T06:28:29.385Z,20.93
2023-08-14T06:29:29.366Z,20.96
2023-08-14T06:30:29.355Z,20.98
2023-08-14T06:31:29.364Z,21.05
2023-08-14T06:32:29.386Z,21.08
2023-08-14T06:33:29.308Z,21.09
2023-08-14T06:34:29.309Z,21.11
2023-08-14T06:35:29.300Z,21.11
2023-08-14T06:36:29.303Z,21.11
2023-08-14T06:37:29.271Z,21.08
2023-08-14T06:38:29.290Z,21.01
2023-08-14T06:39:29.801Z,20.93
2023-08-14T06:40:29.229Z,20.88
2023-08-14T06:41:29.291Z,20.87
2023-08-14T06:42:29.214Z,20.91
2023-08-14T06:43:29.416Z,20.93
2023-08-14T06:44:29.363Z,20.96
2023-08-14T06:45:29.168Z,20.90
2023-08-14T06:46:29.340Z,20.91
2023-08-14T06:47:29.192Z,20.91
2023-08-14T06:48:29.158Z,20.94
2023-08-14T06:49:29.143Z,20.91
2023-08-14T06:50:29.153Z,21.01
2023-08-14T06:51:29.119Z,21.06
2023-08-14T06:52:29.112Z,21.12
2023-08-14T06:53:29.144Z,21.15
2023-08-14T06:54:29.133Z,21.26
2023-08-14T06:55:29.086Z,21.31
2023-08-14T06:56:29.091Z,21.49
2023-08-14T06:57:29.038Z,21.66
2023-08-14T06:58:29.146Z,21.79
2023-08-14T06:59:29.033Z,21.90
2023-08-14T07:00:29.041Z,21.99
2023-08-14T07:01:29.027Z,22.04
2023-08-14T07:02:29.181Z,22.02
2023-08-14T07:03:29.053Z,22.05
2023-08-14T07:04:28.989Z,21.98
2023-08-14T07:05:29.035Z,22.02
2023-08-14T07:06:28.967Z,22.05
2023-08-14T07:07:28.966Z,22.11
2023-08-14T07:08:29.022Z,22.20
2023-08-14T07:09:28.927Z,22.15
2023-08-14T07:10:28.927Z,22.11
2023-08-14T07:11:28.906Z,22.08
2023-08-14T07:12:28.951Z,22.24
2023-08-14T07:13:28.881Z,22.39
2023-08-14T07:14:31.149Z,22.54
2023-08-14T07:15:28.873Z,22.67
2023-08-14T07:16:28.876Z,22.72
2023-08-14T07:17:29.005Z,22.61
2023-08-14T07:18:28.861Z,22.48
2023-08-14T07:19:28.841Z,22.41
2023-08-14T07:20:28.822Z,22.45
2023-08-14T07:21:28.827Z,22.46
2023-08-14T07:22:28.786Z,22.45
2023-08-14T07:23:28.816Z,22.48
2023-08-14T07:24:28.794Z,22.48
2023-08-14T07:25:28.781Z,22.46
2023-08-14T07:26:28.747Z,22.46
2023-08-14T07:27:28.727Z,22.52
2023-08-14T07:28:28.712Z,22.51
2023-08-14T07:29:28.748Z,22.54
2023-08-14T07:30:28.775Z,22.52
2023-08-14T07:31:28.708Z,22.56
2023-08-14T07:32:28.719Z,22.67
2023-08-14T07:33:28.732Z,22.84
2023-08-14T07:34:28.778Z,22.88
2023-08-14T07:35:28.703Z,22.88
2023-08-14T07:36:28.810Z,22.86
2023-08-14T07:37:28.673Z,22.94
2023-08-14T07:38:28.713Z,23.11
2023-08-14T07:39:28.634Z,23.23
2023-08-14T07:40:28.597Z,23.42
2023-08-14T07:41:28.628Z,23.56
2023-08-14T07:42:28.589Z,23.64
2023-08-14T07:43:28.589Z,23.71
2023-08-14T07:44:28.551Z,23.84
2023-08-14T07:45:28.718Z,23.90
2023-08-14T07:46:28.552Z,23.94
2023-08-14T07:47:28.531Z,23.94
2023-08-14T07:48:28.742Z,23.93
2023-08-14T07:49:28.514Z,23.90
2023-08-14T07:50:28.555Z,23.82
2023-08-14T07:51:28.500Z,23.92
2023-08-14T07:52:28.479Z,23.87
2023-08-14T07:53:28.470Z,23.94
2023-08-14T07:54:28.447Z,23.97
2023-08-14T07:55:29.158Z,23.97
2023-08-14T07:56:28.434Z,23.99
2023-08-14T07:57:28.412Z,23.93
2023-08-14T07:58:28.404Z,23.96
2023-08-14T07:59:28.405Z,23.97
2023-08-14T08:00:28.414Z,24.02
2023-08-14T08:01:28.442Z,24.04
2023-08-14T08:02:29.684Z,23.97
2023-08-14T08:03:28.365Z,23.94
2023-08-14T08:04:28.336Z,23.97
2023-08-14T08:05:28.416Z,23.89
2023-08-14T08:06:28.357Z,23.68
2023-08-14T08:07:28.574Z,23.57
2023-08-14T08:08:28.302Z,23.50
2023-08-14T08:09:28.292Z,23.52
2023-08-14T08:10:28.330Z,23.49
2023-08-14T08:11:28.294Z,23.45
2023-08-14T08:12:28.311Z,23.52
2023-08-14T08:13:28.232Z,23.68
2023-08-14T08:14:28.262Z,23.69
2023-08-14T08:15:28.214Z,23.69
2023-08-14T08:16:28.287Z,23.69
2023-08-14T08:17:28.317Z,23.57
2023-08-14T08:18:28.262Z,23.63
2023-08-14T08:19:28.212Z,23.64
2023-08-14T08:20:29.371Z,23.69
2023-08-14T08:21:28.201Z,23.74
2023-08-14T08:22:28.167Z,23.86
2023-08-14T08:23:28.775Z,24.00
2023-08-14T08:24:28.139Z,24.08
2023-08-14T08:25:28.152Z,24.11
2023-08-14T08:26:28.124Z,24.11
2023-08-14T08:27:28.095Z,24.02
2023-08-14T08:28:28.127Z,24.04
2023-08-14T08:29:28.200Z,24.09
2023-08-14T08:30:28.102Z,24.12
2023-08-14T08:31:28.135Z,24.19
2023-08-14T08:32:30.785Z,24.26
2023-08-14T08:33:28.311Z,24.15
2023-08-14T08:34:28.017Z,24.11
2023-08-14T08:35:28.045Z,24.09
2023-08-14T08:36:28.015Z,23.99
2023-08-14T08:37:28.005Z,24.00
2023-08-14T08:38:28.023Z,24.00
2023-08-14T08:39:27.967Z,24.02
2023-08-14T08:40:27.970Z,23.89
2023-08-14T08:41:28.064Z,23.86
2023-08-14T08:42:27.942Z,23.90
2023-08-14T08:43:27.960Z,23.86
2023-08-14T08:44:27.934Z,23.84
2023-08-14T08:45:27.947Z,23.81
2023-08-14T08:46:27.934Z,23.84
2023-08-14T08:47:27.887Z,23.89
2023-08-14T08:48:27.911Z,23.93
2023-08-14T08:49:28.807Z,23.92
2023-08-14T08:50:27.894Z,23.94
2023-08-14T08:51:27.884Z,24.00
2023-08-14T08:52:27.832Z,23.93
2023-08-14T08:53:27.820Z,23.89
2023-08-14T08:54:27.819Z,23.94
2023-08-14T08:55:27.896Z,23.99
2023-08-14T08:56:27.809Z,23.89
2023-08-14T08:57:27.782Z,23.89
2023-08-14T08:58:27.830Z,23.90
2023-08-14T08:59:27.762Z,23.99
2023-08-14T09:00:27.895Z,24.09
2023-08-14T09:01:27.836Z,24.19
2023-08-14T09:02:27.793Z,24.27
2023-08-14T09:03:27.791Z,24.27
2023-08-14T09:04:27.801Z,24.33
2023-08-14T09:05:27.698Z,24.41
2023-08-14T09:06:27.696Z,24.49
2023-08-14T09:07:27.706Z,24.56
2023-08-14T09:08:27.682Z,24.63
2023-08-14T09:09:27.677Z,24.52
2023-08-14T09:10:27.640Z,24.26
2023-08-14T09:11:27.722Z,24.18
2023-08-14T09:12:27.656Z,24.19
2023-08-14T09:13:32.366Z,24.15
2023-08-14T09:14:27.606Z,24.12
2023-08-14T09:15:32.788Z,24.16
2023-08-14T09:16:27.601Z,24.12
2023-08-14T09:17:27.599Z,24.15
2023-08-14T09:18:27.582Z,24.19
2023-08-14T09:19:27.577Z,24.30
2023-08-14T09:20:30.719Z,24.33
2023-08-14T09:21:27.557Z,24.48
2023-08-14T09:22:27.539Z,24.51
2023-08-14T09:23:27.568Z,24.60
2023-08-14T09:24:27.636Z,24.46
2023-08-14T09:25:27.498Z,24.49
2023-08-14T09:26:27.498Z,24.63
2023-08-14T09:27:27.496Z,24.77
2023-08-14T09:28:27.543Z,24.83
2023-08-14T09:29:27.459Z,24.74
2023-08-14T09:30:27.481Z,24.86
2023-08-14T09:31:27.442Z,25.12
2023-08-14T09:32:28.302Z,25.22
2023-08-14T09:33:27.501Z,25.54
2023-08-14T09:34:27.408Z,25.82
2023-08-14T09:35:27.747Z,26.03
2023-08-14T09:36:27.405Z,26.13
2023-08-14T09:37:27.391Z,26.38
2023-08-14T09:38:27.396Z,26.49
2023-08-14T09:39:27.652Z,26.34
2023-08-14T09:40:27.354Z,26.27
2023-08-14T09:41:29.377Z,26.46
2023-08-14T09:42:29.072Z,26.50
2023-08-14T09:43:28.271Z,26.41
2023-08-14T09:44:27.334Z,26.04
2023-08-14T09:45:27.320Z,26.31
2023-08-14T09:46:27.547Z,26.13
2023-08-14T09:47:27.426Z,26.24
2023-08-14T09:48:27.417Z,26.54
2023-08-14T09:49:27.252Z,26.78
2023-08-14T09:50:27.364Z,26.96
2023-08-14T09:51:27.288Z,26.68
2023-08-14T09:52:27.240Z,26.73
2023-08-14T09:53:27.349Z,26.93
2023-08-14T09:54:27.924Z,27.16
2023-08-14T09:55:27.210Z,27.33
2023-08-14T09:56:27.213Z,27.43
2023-08-14T09:57:29.170Z,27.53
2023-08-14T09:58:27.142Z,27.49
2023-08-14T09:59:27.164Z,27.59
2023-08-14T10:00:27.129Z,27.50
2023-08-14T10:01:27.448Z,27.61
2023-08-14T10:02:27.234Z,27.50
2023-08-14T10:03:27.151Z,27.62
2023-08-14T10:04:27.094Z,27.78
2023-08-14T10:05:27.101Z,27.96
2023-08-14T10:06:27.140Z,28.23
2023-08-14T10:07:27.080Z,28.33
2023-08-14T10:08:27.048Z,28.51
2023-08-14T10:09:27.045Z,28.52
2023-08-14T10:10:27.013Z,28.52
2023-08-14T10:11:27.021Z,28.52
2023-08-14T10:12:27.013Z,28.58
2023-08-14T10:13:27.006Z,28.77
2023-08-14T10:14:27.075Z,28.88
2023-08-14T10:15:27.038Z,28.25
2023-08-14T10:16:27.024Z,27.69
2023-08-14T10:17:26.952Z,27.77
2023-08-14T10:18:26.948Z,28.15
2023-08-14T10:19:26.946Z,28.43
2023-08-14T10:20:26.931Z,28.72
2023-08-14T10:21:26.943Z,29.00
2023-08-14T10:22:26.912Z,29.18
2023-08-14T10:23:26.927Z,29.05
2023-08-14T10:24:26.887Z,29.02
2023-08-14T10:25:27.130Z,28.92
2023-08-14T10:26:28.085Z,29.12
2023-08-14T10:27:26.860Z,29.18
2023-08-14T10:28:26.918Z,29.14
2023-08-14T10:29:26.829Z,28.91
2023-08-14T10:30:26.886Z,29.05
2023-08-14T10:31:26.819Z,28.94
2023-08-14T10:32:26.832Z,28.73
2023-08-14T10:33:26.802Z,28.61
2023-08-14T10:34:26.791Z,28.28
2023-08-14T10:35:27.647Z,28.25
2023-08-14T10:36:26.750Z,28.23
2023-08-14T10:37:26.743Z,28.38
2023-08-14T10:38:26.942Z,28.67
2023-08-14T10:39:26.751Z,28.89
2023-08-14T10:40:26.733Z,29.08
2023-08-14T10:41:26.720Z,29.17
2023-08-14T10:42:26.732Z,29.03
2023-08-14T10:43:26.744Z,28.85
2023-08-14T10:44:26.685Z,28.62
2023-08-14T10:45:26.692Z,28.42
2023-08-14T10:46:26.661Z,28.23
2023-08-14T10:47:26.669Z,28.46
2023-08-14T10:48:26.685Z,28.67
2023-08-14T10:49:26.627Z,28.70
2023-08-14T10:50:26.706Z,28.80
2023-08-14T10:51:26.597Z,28.88
2023-08-14T10:52:26.603Z,29.17
2023-08-14T10:53:26.642Z,29.10
2023-08-14T10:54:26.654Z,29.07
2023-08-14T10:55:26.567Z,28.79
2023-08-14T10:56:26.570Z,28.64
2023-08-14T10:57:26.572Z,28.89
2023-08-14T10:58:26.571Z,28.74
2023-08-14T10:59:26.548Z,28.95
2023-08-14T11:00:26.570Z,28.95
2023-08-14T11:01:26.568Z,29.23
2023-08-14T11:02:26.563Z,29.03
2023-08-14T11:03:26.509Z,28.64
2023-08-14T11:04:26.466Z,28.58
2023-08-14T11:05:26.549Z,28.61
2023-08-14T11:06:26.481Z,28.42
2023-08-14T11:07:26.496Z,28.25
2023-08-14T11:08:26.456Z,28.33
2023-08-14T11:09:26.451Z,28.28
2023-08-14T11:10:26.430Z,28.21
2023-08-14T11:11:28.252Z,28.08
2023-08-14T11:12:26.424Z,28.01
2023-08-14T11:13:26.439Z,28.15
2023-08-14T11:14:26.397Z,28.38
2023-08-14T11:15:26.431Z,28.30
2023-08-14T11:16:26.376Z,28.24
2023-08-14T11:17:26.410Z,28.20
2023-08-14T11:18:26.351Z,28.24
2023-08-14T11:19:26.415Z,28.20
2023-08-14T11:20:26.319Z,28.24
2023-08-14T11:21:31.901Z,28.28
2023-08-14T11:22:26.445Z,28.02
2023-08-14T11:23:26.305Z,27.83
2023-08-14T11:24:26.287Z,27.83
2023-08-14T11:25:26.350Z,27.98
2023-08-14T11:26:26.284Z,27.98
2023-08-14T11:27:26.258Z,27.99
2023-08-14T11:28:26.274Z,28.15
2023-08-14T11:29:26.302Z,28.17
2023-08-14T11:30:27.049Z,28.01
2023-08-14T11:31:33.891Z,27.95
2023-08-14T11:32:26.232Z,28.14
2023-08-14T11:33:26.219Z,28.30
2023-08-14T11:34:26.176Z,28.60
2023-08-14T11:35:26.197Z,28.60
2023-08-14T11:36:34.534Z,28.77
2023-08-14T11:37:26.324Z,28.95
2023-08-14T11:38:26.149Z,29.08
2023-08-14T11:39:26.162Z,29.10
2023-08-14T11:40:26.167Z,29.07
2023-08-14T11:41:31.464Z,28.57
2023-08-14T11:42:26.105Z,28.46
2023-08-14T11:43:26.113Z,28.52
2023-08-14T11:44:26.115Z,28.35
2023-08-14T11:45:26.321Z,28.24
2023-08-14T11:46:26.103Z,28.40
2023-08-14T11:47:26.186Z,28.51
2023-08-14T11:48:26.262Z,28.60
2023-08-14T11:49:26.059Z,28.51
2023-08-14T11:50:26.090Z,28.54
2023-08-14T11:51:26.109Z,28.67
2023-08-14T11:52:26.013Z,28.70
2023-08-14T11:53:26.027Z,28.80
2023-08-14T11:54:26.973Z,28.98
2023-08-14T11:55:26.004Z,29.25
2023-08-14T11:56:25.963Z,29.26
2023-08-14T11:57:26.050Z,29.51
2023-08-14T11:58:25.939Z,29.79
2023-08-14T11:59:25.919Z,29.88
2023-08-14T12:00:32.976Z,29.66
2023-08-14T12:01:25.955Z,29.60
2023-08-14T12:02:26.072Z,29.57
2023-08-14T12:03:25.970Z,29.63
2023-08-14T12:04:25.924Z,29.41
2023-08-14T12:05:25.874Z,28.92
2023-08-14T12:06:25.888Z,28.64
2023-08-14T12:07:25.851Z,28.85
2023-08-14T12:08:25.855Z,29.17
2023-08-14T12:09:25.864Z,29.47
2023-08-14T12:10:25.966Z,29.70
2023-08-14T12:11:25.853Z,29.44
2023-08-14T12:12:25.807Z,29.62
2023-08-14T12:13:25.854Z,29.67
2023-08-14T12:14:25.908Z,29.91
2023-08-14T12:15:25.826Z,30.21
2023-08-14T12:16:28.430Z,30.22
2023-08-14T12:17:26.100Z,30.29
2023-08-14T12:18:25.836Z,30.04
2023-08-14T12:19:26.217Z,29.51
2023-08-14T12:20:25.744Z,29.42
2023-08-14T12:21:25.754Z,29.45
2023-08-14T12:22:25.725Z,29.69
2023-08-14T12:23:25.708Z,30.07
2023-08-14T12:24:25.708Z,30.36
2023-08-14T12:25:25.696Z,30.46
2023-08-14T12:26:25.708Z,30.08
2023-08-14T12:27:25.706Z,29.70
2023-08-14T12:28:25.644Z,29.54
2023-08-14T12:29:25.788Z,29.86
2023-08-14T12:30:25.642Z,30.38
2023-08-14T12:31:25.710Z,30.56
2023-08-14T12:32:25.921Z,30.66
2023-08-14T12:33:25.608Z,30.30
2023-08-14T12:34:25.635Z,30.18
2023-08-14T12:35:25.600Z,30.19
2023-08-14T12:36:25.581Z,30.26
2023-08-14T12:37:25.564Z,30.21
2023-08-14T12:38:25.636Z,30.19
2023-08-14T12:39:26.326Z,30.23
2023-08-14T12:40:28.014Z,30.18
2023-08-14T12:41:25.534Z,30.21
2023-08-14T12:42:25.564Z,30.44
2023-08-14T12:43:36.453Z,30.38
2023-08-14T12:44:25.567Z,30.08
2023-08-14T12:45:25.518Z,29.84
2023-08-14T12:46:25.524Z,29.66
2023-08-14T12:47:25.818Z,29.64
2023-08-14T12:48:25.503Z,29.64
2023-08-14T12:49:25.470Z,29.52
2023-08-14T12:50:25.456Z,29.26
2023-08-14T12:51:25.415Z,29.18
2023-08-14T12:52:26.604Z,29.12